New Paris, Indiana
Current Conditions -  °F | °C
As of 9:14 AM on Tuesday 21 Oct 2014 (Local Time) from KGSH Reporting Station
Overcast Overcast  
Wind Chill: 43°   Ceiling: 6000
Heat Index: 47°   Visibility: 10mi
Dew Point: 42°   Wind: 9mph
Humidity: 83%   Direction: 330°NNW
Pressure: 30.05"   Gusts: NA
Location:  41.5°N, 85.83°W
Report Text: KGSH 211314Z AUTO 33008KT 10SM SCT017 OVC060 08/06 A3005 RMK AO2 T00830056
Loading
Personal Weather Stations






























Interactive Weather Map
Tropical Storm Tracking
New forecast layout! Learn more

10-Day Weather Forecast

Advertisements
Track Severe Weather on mobile